sensor_id;sensor_type;location;lat;lon;timestamp;P1;durP1;ratioP1;P2;durP2;ratioP2
27706;SDS011;36332;51.384;0.040;2022-09-17T00:01:25;7.63;;;1.42;;
27706;SDS011;36332;51.384;0.040;2022-09-17T00:03:55;5.03;;;1.20;;
27706;SDS011;36332;51.384;0.040;2022-09-17T00:06:26;6.57;;;1.45;;
27706;SDS011;36332;51.384;0.040;2022-09-17T00:08:53;10.60;;;1.35;;
27706;SDS011;36332;51.384;0.040;2022-09-17T00:11:25;7.25;;;1.40;;
27706;SDS011;36332;51.384;0.040;2022-09-17T00:13:56;6.47;;;1.35;;
27706;SDS011;36332;51.384;0.040;2022-09-17T00:16:27;8.07;;;1.52;;
27706;SDS011;36332;51.384;0.040;2022-09-17T00:18:57;15.80;;;1.90;;
27706;SDS011;36332;51.384;0.040;2022-09-17T00:21:25;11.00;;;1.70;;
27706;SDS011;36332;51.384;0.040;2022-09-17T00:23:54;8.73;;;1.58;;
27706;SDS011;36332;51.384;0.040;2022-09-17T00:26:24;3.85;;;1.33;;
27706;SDS011;36332;51.384;0.040;2022-09-17T00:28:53;8.80;;;1.33;;
27706;SDS011;36332;51.384;0.040;2022-09-17T00:31:22;6.53;;;1.33;;
27706;SDS011;36332;51.384;0.040;2022-09-17T00:33:51;4.68;;;1.50;;
27706;SDS011;36332;51.384;0.040;2022-09-17T00:36:21;4.35;;;1.10;;
27706;SDS011;36332;51.384;0.040;2022-09-17T00:38:53;10.30;;;1.25;;
27706;SDS011;36332;51.384;0.040;2022-09-17T00:41:24;10.93;;;1.17;;
27706;SDS011;36332;51.384;0.040;2022-09-17T00:43:57;3.97;;;1.00;;
27706;SDS011;36332;51.384;0.040;2022-09-17T00:46:42;10.10;;;1.58;;
27706;SDS011;36332;51.384;0.040;2022-09-17T00:51:54;8.98;;;1.20;;
27706;SDS011;36332;51.384;0.040;2022-09-17T00:54:28;6.95;;;2.40;;
27706;SDS011;36332;51.384;0.040;2022-09-17T00:56:56;5.72;;;1.52;;
27706;SDS011;36332;51.384;0.040;2022-09-17T00:59:24;7.45;;;1.35;;
27706;SDS011;36332;51.384;0.040;2022-09-17T01:01:53;5.18;;;1.08;;
27706;SDS011;36332;51.384;0.040;2022-09-17T01:04:22;11.00;;;1.42;;
27706;SDS011;36332;51.384;0.040;2022-09-17T01:06:55;5.00;;;1.23;;
27706;SDS011;36332;51.384;0.040;2022-09-17T01:09:46;6.22;;;1.45;;
27706;SDS011;36332;51.384;0.040;2022-09-17T01:15:32;12.73;;;1.55;;
27706;SDS011;36332;51.384;0.040;2022-09-17T01:27:17;5.47;;;1.33;;
27706;SDS011;36332;51.384;0.040;2022-09-17T01:40:27;2.92;;;1.25;;
27706;SDS011;36332;51.384;0.040;2022-09-17T01:43:14;5.68;;;1.33;;
27706;SDS011;36332;51.384;0.040;2022-09-17T01:46:00;3.05;;;1.50;;
27706;SDS011;36332;51.384;0.040;2022-09-17T01:48:37;3.40;;;1.23;;
27706;SDS011;36332;51.384;0.040;2022-09-17T01:51:11;5.13;;;1.83;;
27706;SDS011;36332;51.384;0.040;2022-09-17T01:53:47;7.45;;;1.67;;
27706;SDS011;36332;51.384;0.040;2022-09-17T01:56:25;3.92;;;0.90;;
27706;SDS011;36332;51.384;0.040;2022-09-17T01:58:59;6.57;;;1.10;;
27706;SDS011;36332;51.384;0.040;2022-09-17T02:01:33;8.35;;;1.52;;
27706;SDS011;36332;51.384;0.040;2022-09-17T02:04:13;6.25;;;1.10;;
27706;SDS011;36332;51.384;0.040;2022-09-17T02:06:50;7.72;;;0.98;;
27706;SDS011;36332;51.384;0.040;2022-09-17T02:09:23;13.77;;;3.70;;
27706;SDS011;36332;51.384;0.040;2022-09-17T02:11:59;3.53;;;1.05;;
27706;SDS011;36332;51.384;0.040;2022-09-17T02:14:33;8.70;;;1.83;;
27706;SDS011;36332;51.384;0.040;2022-09-17T02:17:15;3.78;;;1.35;;
27706;SDS011;36332;51.384;0.040;2022-09-17T02:19:49;3.42;;;1.05;;
27706;SDS011;36332;51.384;0.040;2022-09-17T02:22:40;5.82;;;1.15;;
27706;SDS011;36332;51.384;0.040;2022-09-17T02:25:17;3.95;;;0.98;;
27706;SDS011;36332;51.384;0.040;2022-09-17T02:27:53;5.07;;;1.70;;
27706;SDS011;36332;51.384;0.040;2022-09-17T02:30:41;7.05;;;1.02;;
27706;SDS011;36332;51.384;0.040;2022-09-17T02:33:10;6.07;;;1.55;;
27706;SDS011;36332;51.384;0.040;2022-09-17T02:35:40;8.27;;;1.60;;
27706;SDS011;36332;51.384;0.040;2022-09-17T02:38:09;3.58;;;1.42;;
27706;SDS011;36332;51.384;0.040;2022-09-17T02:40:44;8.45;;;1.35;;
27706;SDS011;36332;51.384;0.040;2022-09-17T02:54:32;8.02;;;1.85;;
27706;SDS011;36332;51.384;0.040;2022-09-17T02:57:26;13.10;;;3.60;;
27706;SDS011;36332;51.384;0.040;2022-09-17T03:00:16;8.30;;;2.25;;
27706;SDS011;36332;51.384;0.040;2022-09-17T03:02:47;9.90;;;2.65;;
27706;SDS011;36332;51.384;0.040;2022-09-17T03:05:19;9.88;;;2.10;;
27706;SDS011;36332;51.384;0.040;2022-09-17T03:07:49;7.15;;;1.75;;
27706;SDS011;36332;51.384;0.040;2022-09-17T03:10:16;4.63;;;2.08;;
27706;SDS011;36332;51.384;0.040;2022-09-17T03:12:45;3.47;;;1.65;;
27706;SDS011;36332;51.384;0.040;2022-09-17T03:15:13;10.23;;;2.20;;
27706;SDS011;36332;51.384;0.040;2022-09-17T03:17:41;5.47;;;1.98;;
27706;SDS011;36332;51.384;0.040;2022-09-17T03:20:08;7.45;;;2.10;;
27706;SDS011;36332;51.384;0.040;2022-09-17T03:22:36;8.18;;;2.25;;
27706;SDS011;36332;51.384;0.040;2022-09-17T03:25:03;7.80;;;1.80;;
27706;SDS011;36332;51.384;0.040;2022-09-17T03:27:31;5.15;;;2.00;;
27706;SDS011;36332;51.384;0.040;2022-09-17T03:29:59;5.40;;;2.10;;
27706;SDS011;36332;51.384;0.040;2022-09-17T03:32:26;10.18;;;2.08;;
27706;SDS011;36332;51.384;0.040;2022-09-17T03:34:54;14.20;;;2.22;;
27706;SDS011;36332;51.384;0.040;2022-09-17T03:37:21;5.63;;;2.35;;
27706;SDS011;36332;51.384;0.040;2022-09-17T03:39:49;6.10;;;1.73;;
27706;SDS011;36332;51.384;0.040;2022-09-17T03:42:17;6.05;;;2.08;;
27706;SDS011;36332;51.384;0.040;2022-09-17T03:44:44;3.00;;;1.42;;
27706;SDS011;36332;51.384;0.040;2022-09-17T03:47:12;10.07;;;2.28;;
27706;SDS011;36332;51.384;0.040;2022-09-17T03:49:42;5.50;;;1.95;;
27706;SDS011;36332;51.384;0.040;2022-09-17T03:52:10;4.53;;;2.00;;
27706;SDS011;36332;51.384;0.040;2022-09-17T03:54:37;5.82;;;2.47;;
27706;SDS011;36332;51.384;0.040;2022-09-17T03:57:05;8.25;;;2.67;;
27706;SDS011;36332;51.384;0.040;2022-09-17T03:59:32;7.00;;;2.05;;
27706;SDS011;36332;51.384;0.040;2022-09-17T04:02:00;10.77;;;2.20;;
27706;SDS011;36332;51.384;0.040;2022-09-17T04:04:28;14.20;;;2.35;;
27706;SDS011;36332;51.384;0.040;2022-09-17T04:06:55;13.35;;;2.35;;
27706;SDS011;36332;51.384;0.040;2022-09-17T04:09:23;6.88;;;1.92;;
27706;SDS011;36332;51.384;0.040;2022-09-17T04:11:52;7.40;;;1.80;;
27706;SDS011;36332;51.384;0.040;2022-09-17T04:14:20;4.57;;;1.90;;
27706;SDS011;36332;51.384;0.040;2022-09-17T04:16:47;5.95;;;2.10;;
27706;SDS011;36332;51.384;0.040;2022-09-17T04:19:15;5.70;;;1.75;;
27706;SDS011;36332;51.384;0.040;2022-09-17T04:21:42;5.15;;;1.52;;
27706;SDS011;36332;51.384;0.040;2022-09-17T04:24:10;3.70;;;1.75;;
27706;SDS011;36332;51.384;0.040;2022-09-17T04:26:37;8.85;;;2.72;;
27706;SDS011;36332;51.384;0.040;2022-09-17T04:29:05;6.88;;;1.98;;
27706;SDS011;36332;51.384;0.040;2022-09-17T04:31:33;6.93;;;2.10;;
27706;SDS011;36332;51.384;0.040;2022-09-17T04:34:00;5.07;;;2.08;;
27706;SDS011;36332;51.384;0.040;2022-09-17T04:36:29;7.57;;;2.42;;
27706;SDS011;36332;51.384;0.040;2022-09-17T04:38:56;7.25;;;2.40;;
27706;SDS011;36332;51.384;0.040;2022-09-17T04:41:24;8.25;;;2.35;;
27706;SDS011;36332;51.384;0.040;2022-09-17T04:43:51;5.88;;;2.15;;
27706;SDS011;36332;51.384;0.040;2022-09-17T04:46:19;7.15;;;2.63;;
27706;SDS011;36332;51.384;0.040;2022-09-17T04:48:47;7.28;;;2.50;;
27706;SDS011;36332;51.384;0.040;2022-09-17T04:51:14;8.07;;;2.28;;
27706;SDS011;36332;51.384;0.040;2022-09-17T04:53:42;7.82;;;2.03;;
27706;SDS011;36332;51.384;0.040;2022-09-17T04:56:09;6.00;;;2.47;;
27706;SDS011;36332;51.384;0.040;2022-09-17T04:58:37;9.85;;;2.40;;
27706;SDS011;36332;51.384;0.040;2022-09-17T05:01:05;3.95;;;2.00;;
27706;SDS011;36332;51.384;0.040;2022-09-17T05:03:33;2.85;;;1.75;;
27706;SDS011;36332;51.384;0.040;2022-09-17T05:06:00;18.27;;;2.55;;
27706;SDS011;36332;51.384;0.040;2022-09-17T05:08:28;9.38;;;2.47;;
27706;SDS011;36332;51.384;0.040;2022-09-17T05:10:56;7.93;;;2.33;;
27706;SDS011;36332;51.384;0.040;2022-09-17T05:13:23;11.30;;;2.00;;
27706;SDS011;36332;51.384;0.040;2022-09-17T05:15:52;7.32;;;2.35;;
27706;SDS011;36332;51.384;0.040;2022-09-17T05:18:22;8.80;;;2.40;;
27706;SDS011;36332;51.384;0.040;2022-09-17T05:20:51;4.72;;;2.08;;
27706;SDS011;36332;51.384;0.040;2022-09-17T05:23:18;7.28;;;1.88;;
27706;SDS011;36332;51.384;0.040;2022-09-17T05:25:46;9.65;;;2.70;;
27706;SDS011;36332;51.384;0.040;2022-09-17T05:28:13;11.30;;;2.50;;
27706;SDS011;36332;51.384;0.040;2022-09-17T05:30:41;4.78;;;1.90;;
27706;SDS011;36332;51.384;0.040;2022-09-17T05:33:08;6.88;;;2.20;;
27706;SDS011;36332;51.384;0.040;2022-09-17T05:35:36;7.72;;;2.45;;
27706;SDS011;36332;51.384;0.040;2022-09-17T05:38:04;9.18;;;4.72;;
27706;SDS011;36332;51.384;0.040;2022-09-17T05:40:34;5.55;;;2.38;;
27706;SDS011;36332;51.384;0.040;2022-09-17T05:43:04;7.47;;;2.20;;
27706;SDS011;36332;51.384;0.040;2022-09-17T05:45:33;5.57;;;2.67;;
27706;SDS011;36332;51.384;0.040;2022-09-17T05:48:01;13.38;;;3.35;;
27706;SDS011;36332;51.384;0.040;2022-09-17T05:50:30;7.60;;;2.17;;
27706;SDS011;36332;51.384;0.040;2022-09-17T05:53:02;5.78;;;2.42;;
27706;SDS011;36332;51.384;0.040;2022-09-17T05:55:32;8.52;;;2.42;;
27706;SDS011;36332;51.384;0.040;2022-09-17T05:58:07;9.27;;;2.10;;
27706;SDS011;36332;51.384;0.040;2022-09-17T06:00:39;4.03;;;1.85;;
27706;SDS011;36332;51.384;0.040;2022-09-17T06:03:08;7.10;;;3.15;;
27706;SDS011;36332;51.384;0.040;2022-09-17T06:05:37;5.15;;;2.42;;
27706;SDS011;36332;51.384;0.040;2022-09-17T06:08:05;6.18;;;2.15;;
27706;SDS011;36332;51.384;0.040;2022-09-17T06:10:36;9.40;;;2.03;;
27706;SDS011;36332;51.384;0.040;2022-09-17T06:13:05;6.38;;;2.25;;
27706;SDS011;36332;51.384;0.040;2022-09-17T06:15:33;10.77;;;2.50;;
27706;SDS011;36332;51.384;0.040;2022-09-17T06:18:00;6.53;;;2.67;;
27706;SDS011;36332;51.384;0.040;2022-09-17T06:20:28;8.05;;;2.50;;
27706;SDS011;36332;51.384;0.040;2022-09-17T06:22:56;6.30;;;2.00;;
27706;SDS011;36332;51.384;0.040;2022-09-17T06:25:24;6.93;;;1.98;;
27706;SDS011;36332;51.384;0.040;2022-09-17T06:27:52;3.80;;;2.15;;
27706;SDS011;36332;51.384;0.040;2022-09-17T06:30:23;7.03;;;2.35;;
27706;SDS011;36332;51.384;0.040;2022-09-17T06:32:51;6.68;;;2.38;;
27706;SDS011;36332;51.384;0.040;2022-09-17T06:35:18;4.75;;;1.90;;
27706;SDS011;36332;51.384;0.040;2022-09-17T06:37:46;5.65;;;2.28;;
27706;SDS011;36332;51.384;0.040;2022-09-17T06:40:14;3.28;;;2.00;;
27706;SDS011;36332;51.384;0.040;2022-09-17T06:42:42;9.90;;;2.40;;
27706;SDS011;36332;51.384;0.040;2022-09-17T06:45:09;11.60;;;2.38;;
27706;SDS011;36332;51.384;0.040;2022-09-17T06:47:42;5.93;;;2.28;;
27706;SDS011;36332;51.384;0.040;2022-09-17T06:50:10;10.20;;;2.72;;
27706;SDS011;36332;51.384;0.040;2022-09-17T06:52:37;5.38;;;2.70;;
27706;SDS011;36332;51.384;0.040;2022-09-17T06:55:05;5.50;;;2.70;;
27706;SDS011;36332;51.384;0.040;2022-09-17T06:57:33;4.68;;;2.17;;
27706;SDS011;36332;51.384;0.040;2022-09-17T07:00:02;6.88;;;2.30;;
27706;SDS011;36332;51.384;0.040;2022-09-17T07:02:30;4.55;;;2.20;;
27706;SDS011;36332;51.384;0.040;2022-09-17T07:04:57;10.00;;;3.47;;
27706;SDS011;36332;51.384;0.040;2022-09-17T07:07:25;4.30;;;1.85;;
27706;SDS011;36332;51.384;0.040;2022-09-17T07:09:53;8.63;;;2.72;;
27706;SDS011;36332;51.384;0.040;2022-09-17T07:12:21;10.98;;;2.53;;
27706;SDS011;36332;51.384;0.040;2022-09-17T07:14:49;4.63;;;1.83;;
27706;SDS011;36332;51.384;0.040;2022-09-17T07:17:17;5.72;;;2.10;;
27706;SDS011;36332;51.384;0.040;2022-09-17T07:19:44;9.07;;;2.17;;
27706;SDS011;36332;51.384;0.040;2022-09-17T07:22:12;5.90;;;2.35;;
27706;SDS011;36332;51.384;0.040;2022-09-17T07:24:40;4.50;;;1.92;;
27706;SDS011;36332;51.384;0.040;2022-09-17T07:27:07;8.77;;;2.75;;
27706;SDS011;36332;51.384;0.040;2022-09-17T07:29:35;3.95;;;2.00;;
27706;SDS011;36332;51.384;0.040;2022-09-17T07:32:02;4.85;;;1.90;;
27706;SDS011;36332;51.384;0.040;2022-09-17T07:34:30;6.15;;;1.90;;
27706;SDS011;36332;51.384;0.040;2022-09-17T07:36:57;6.68;;;2.35;;
27706;SDS011;36332;51.384;0.040;2022-09-17T07:39:25;7.15;;;2.53;;
27706;SDS011;36332;51.384;0.040;2022-09-17T07:41:52;5.03;;;2.38;;
27706;SDS011;36332;51.384;0.040;2022-09-17T07:44:20;5.68;;;1.67;;
27706;SDS011;36332;51.384;0.040;2022-09-17T07:46:48;7.47;;;1.77;;
27706;SDS011;36332;51.384;0.040;2022-09-17T07:49:16;4.03;;;2.00;;
27706;SDS011;36332;51.384;0.040;2022-09-17T07:51:43;5.97;;;1.73;;
27706;SDS011;36332;51.384;0.040;2022-09-17T07:54:11;7.25;;;2.17;;
27706;SDS011;36332;51.384;0.040;2022-09-17T07:56:39;9.90;;;2.30;;
27706;SDS011;36332;51.384;0.040;2022-09-17T07:59:07;9.48;;;1.80;;
27706;SDS011;36332;51.384;0.040;2022-09-17T08:01:37;7.90;;;2.47;;
27706;SDS011;36332;51.384;0.040;2022-09-17T08:04:06;6.00;;;1.67;;
27706;SDS011;36332;51.384;0.040;2022-09-17T08:06:37;11.00;;;2.30;;
27706;SDS011;36332;51.384;0.040;2022-09-17T08:09:06;7.15;;;1.67;;
27706;SDS011;36332;51.384;0.040;2022-09-17T08:11:36;11.45;;;2.22;;
27706;SDS011;36332;51.384;0.040;2022-09-17T08:14:21;7.25;;;1.60;;
27706;SDS011;36332;51.384;0.040;2022-09-17T08:16:55;6.30;;;2.20;;
27706;SDS011;36332;51.384;0.040;2022-09-17T08:19:23;13.23;;;4.10;;
27706;SDS011;36332;51.384;0.040;2022-09-17T08:21:51;7.22;;;1.77;;
27706;SDS011;36332;51.384;0.040;2022-09-17T08:24:19;3.42;;;1.40;;
27706;SDS011;36332;51.384;0.040;2022-09-17T08:26:46;6.65;;;1.85;;
27706;SDS011;36332;51.384;0.040;2022-09-17T08:29:14;6.07;;;1.75;;
27706;SDS011;36332;51.384;0.040;2022-09-17T08:31:42;5.25;;;1.63;;
27706;SDS011;36332;51.384;0.040;2022-09-17T08:34:10;8.45;;;1.65;;
27706;SDS011;36332;51.384;0.040;2022-09-17T08:36:37;2.13;;;1.27;;
27706;SDS011;36332;51.384;0.040;2022-09-17T08:39:05;7.78;;;1.55;;
27706;SDS011;36332;51.384;0.040;2022-09-17T08:44:34;9.52;;;1.00;;
27706;SDS011;36332;51.384;0.040;2022-09-17T08:47:25;4.35;;;1.00;;
27706;SDS011;36332;51.384;0.040;2022-09-17T08:49:57;7.78;;;1.10;;
27706;SDS011;36332;51.384;0.040;2022-09-17T08:52:40;3.83;;;1.67;;
27706;SDS011;36332;51.384;0.040;2022-09-17T08:55:32;5.43;;;0.90;;
27706;SDS011;36332;51.384;0.040;2022-09-17T09:00:57;1.67;;;0.68;;
27706;SDS011;36332;51.384;0.040;2022-09-17T09:06:50;6.60;;;1.10;;
27706;SDS011;36332;51.384;0.040;2022-09-17T09:09:31;4.15;;;0.85;;
27706;SDS011;36332;51.384;0.040;2022-09-17T09:12:19;6.35;;;0.82;;
27706;SDS011;36332;51.384;0.040;2022-09-17T09:14:53;3.80;;;1.63;;
27706;SDS011;36332;51.384;0.040;2022-09-17T09:17:37;2.90;;;0.65;;
27706;SDS011;36332;51.384;0.040;2022-09-17T09:20:16;3.83;;;1.15;;
27706;SDS011;36332;51.384;0.040;2022-09-17T09:22:59;7.45;;;1.63;;
27706;SDS011;36332;51.384;0.040;2022-09-17T09:25:40;3.03;;;0.80;;
27706;SDS011;36332;51.384;0.040;2022-09-17T09:28:28;6.97;;;1.02;;
27706;SDS011;36332;51.384;0.040;2022-09-17T09:34:01;5.18;;;1.10;;
27706;SDS011;36332;51.384;0.040;2022-09-17T09:36:30;2.72;;;1.08;;
27706;SDS011;36332;51.384;0.040;2022-09-17T09:39:11;9.75;;;1.80;;
27706;SDS011;36332;51.384;0.040;2022-09-17T09:41:51;2.28;;;0.68;;
27706;SDS011;36332;51.384;0.040;2022-09-17T09:44:25;3.33;;;1.13;;
27706;SDS011;36332;51.384;0.040;2022-09-17T09:47:11;4.10;;;1.00;;
27706;SDS011;36332;51.384;0.040;2022-09-17T09:49:56;4.82;;;1.25;;
27706;SDS011;36332;51.384;0.040;2022-09-17T09:55:46;3.45;;;0.85;;
27706;SDS011;36332;51.384;0.040;2022-09-17T09:58:36;6.75;;;1.33;;
27706;SDS011;36332;51.384;0.040;2022-09-17T10:01:13;11.55;;;2.13;;
27706;SDS011;36332;51.384;0.040;2022-09-17T10:03:42;3.45;;;1.10;;
27706;SDS011;36332;51.384;0.040;2022-09-17T10:06:12;4.05;;;0.82;;
27706;SDS011;36332;51.384;0.040;2022-09-17T10:08:42;1.20;;;0.60;;
27706;SDS011;36332;51.384;0.040;2022-09-17T10:11:29;2.55;;;0.63;;
27706;SDS011;36332;51.384;0.040;2022-09-17T10:17:14;3.17;;;1.20;;
27706;SDS011;36332;51.384;0.040;2022-09-17T10:22:33;5.05;;;1.52;;
27706;SDS011;36332;51.384;0.040;2022-09-17T10:25:02;6.38;;;1.00;;
27706;SDS011;36332;51.384;0.040;2022-09-17T10:27:33;8.30;;;1.20;;
27706;SDS011;36332;51.384;0.040;2022-09-17T10:30:12;11.15;;;1.83;;
27706;SDS011;36332;51.384;0.040;2022-09-17T10:32:42;4.80;;;1.42;;
27706;SDS011;36332;51.384;0.040;2022-09-17T10:42:47;2.72;;;0.80;;
27706;SDS011;36332;51.384;0.040;2022-09-17T10:45:34;1.75;;;1.08;;
27706;SDS011;36332;51.384;0.040;2022-09-17T10:48:11;4.53;;;1.23;;
27706;SDS011;36332;51.384;0.040;2022-09-17T10:50:49;4.45;;;1.30;;
27706;SDS011;36332;51.384;0.040;2022-09-17T10:53:20;3.30;;;1.30;;
27706;SDS011;36332;51.384;0.040;2022-09-17T10:58:55;3.50;;;0.85;;
27706;SDS011;36332;51.384;0.040;2022-09-17T11:01:47;6.20;;;0.98;;
27706;SDS011;36332;51.384;0.040;2022-09-17T11:18:22;8.45;;;0.95;;
27706;SDS011;36332;51.384;0.040;2022-09-17T11:29:05;1.40;;;0.98;;
27706;SDS011;36332;51.384;0.040;2022-09-17T11:32:04;2.92;;;1.13;;
27706;SDS011;36332;51.384;0.040;2022-09-17T11:34:37;1.40;;;0.77;;
27706;SDS011;36332;51.384;0.040;2022-09-17T11:37:34;1.73;;;0.70;;
27706;SDS011;36332;51.384;0.040;2022-09-17T11:42:39;2.00;;;0.80;;
27706;SDS011;36332;51.384;0.040;2022-09-17T11:47:46;2.72;;;0.70;;
27706;SDS011;36332;51.384;0.040;2022-09-17T11:50:30;3.88;;;1.00;;
27706;SDS011;36332;51.384;0.040;2022-09-17T11:56:14;7.25;;;1.15;;
27706;SDS011;36332;51.384;0.040;2022-09-17T11:58:51;10.00;;;1.10;;
27706;SDS011;36332;51.384;0.040;2022-09-17T12:06:56;3.72;;;1.63;;
27706;SDS011;36332;51.384;0.040;2022-09-17T12:09:31;3.95;;;1.05;;
27706;SDS011;36332;51.384;0.040;2022-09-17T12:12:06;4.95;;;1.02;;
27706;SDS011;36332;51.384;0.040;2022-09-17T12:15:12;1.70;;;0.60;;
27706;SDS011;36332;51.384;0.040;2022-09-17T12:17:45;2.20;;;0.93;;
27706;SDS011;36332;51.384;0.040;2022-09-17T12:20:39;4.55;;;1.17;;
27706;SDS011;36332;51.384;0.040;2022-09-17T12:23:10;1.75;;;0.73;;
27706;SDS011;36332;51.384;0.040;2022-09-17T12:25:44;4.05;;;1.00;;
27706;SDS011;36332;51.384;0.040;2022-09-17T12:28:53;3.95;;;1.20;;
27706;SDS011;36332;51.384;0.040;2022-09-17T12:31:30;3.00;;;0.50;;
27706;SDS011;36332;51.384;0.040;2022-09-17T12:42:21;2.30;;;0.73;;
27706;SDS011;36332;51.384;0.040;2022-09-17T12:55:29;4.30;;;1.27;;
27706;SDS011;36332;51.384;0.040;2022-09-17T13:03:36;3.72;;;1.20;;
27706;SDS011;36332;51.384;0.040;2022-09-17T13:14:27;2.53;;;0.98;;
27706;SDS011;36332;51.384;0.040;2022-09-17T13:17:23;3.53;;;1.00;;
27706;SDS011;36332;51.384;0.040;2022-09-17T13:20:02;5.07;;;0.90;;
27706;SDS011;36332;51.384;0.040;2022-09-17T13:22:45;2.13;;;0.82;;
27706;SDS011;36332;51.384;0.040;2022-09-17T13:25:16;2.92;;;0.93;;
27706;SDS011;36332;51.384;0.040;2022-09-17T13:27:46;1.92;;;0.70;;
27706;SDS011;36332;51.384;0.040;2022-09-17T13:30:16;3.78;;;0.65;;
27706;SDS011;36332;51.384;0.040;2022-09-17T13:32:46;2.35;;;0.73;;
27706;SDS011;36332;51.384;0.040;2022-09-17T13:48:27;2.05;;;0.70;;
27706;SDS011;36332;51.384;0.040;2022-09-17T13:50:59;10.07;;;1.00;;
27706;SDS011;36332;51.384;0.040;2022-09-17T13:54:06;4.80;;;0.98;;
27706;SDS011;36332;51.384;0.040;2022-09-17T13:56:37;7.70;;;0.75;;
27706;SDS011;36332;51.384;0.040;2022-09-17T13:59:10;3.72;;;1.35;;
27706;SDS011;36332;51.384;0.040;2022-09-17T14:09:53;3.03;;;1.00;;
27706;SDS011;36332;51.384;0.040;2022-09-17T14:18:31;3.25;;;1.40;;
27706;SDS011;36332;51.384;0.040;2022-09-17T14:23:41;1.58;;;0.82;;
27706;SDS011;36332;51.384;0.040;2022-09-17T14:26:18;5.18;;;1.20;;
27706;SDS011;36332;51.384;0.040;2022-09-17T14:29:06;3.92;;;0.90;;
27706;SDS011;36332;51.384;0.040;2022-09-17T14:31:41;6.25;;;0.85;;
27706;SDS011;36332;51.384;0.040;2022-09-17T14:34:11;5.07;;;1.48;;
27706;SDS011;36332;51.384;0.040;2022-09-17T14:36:45;3.90;;;1.02;;
27706;SDS011;36332;51.384;0.040;2022-09-17T14:39:19;3.92;;;0.98;;
27706;SDS011;36332;51.384;0.040;2022-09-17T14:41:49;5.50;;;1.10;;
27706;SDS011;36332;51.384;0.040;2022-09-17T14:44:21;2.63;;;0.95;;
27706;SDS011;36332;51.384;0.040;2022-09-17T14:46:54;4.13;;;1.00;;
27706;SDS011;36332;51.384;0.040;2022-09-17T14:49:24;0.77;;;0.60;;
27706;SDS011;36332;51.384;0.040;2022-09-17T14:52:05;7.05;;;1.00;;
27706;SDS011;36332;51.384;0.040;2022-09-17T14:57:55;3.45;;;1.30;;
27706;SDS011;36332;51.384;0.040;2022-09-17T15:00:25;3.55;;;1.88;;
27706;SDS011;36332;51.384;0.040;2022-09-17T15:02:59;6.07;;;1.98;;
27706;SDS011;36332;51.384;0.040;2022-09-17T15:05:28;1.38;;;0.80;;
27706;SDS011;36332;51.384;0.040;2022-09-17T15:10:48;3.17;;;0.80;;
27706;SDS011;36332;51.384;0.040;2022-09-17T15:13:35;4.05;;;0.95;;
27706;SDS011;36332;51.384;0.040;2022-09-17T15:16:18;3.80;;;1.40;;
27706;SDS011;36332;51.384;0.040;2022-09-17T15:18:52;4.13;;;1.23;;
27706;SDS011;36332;51.384;0.040;2022-09-17T15:26:51;1.80;;;0.65;;
27706;SDS011;36332;51.384;0.040;2022-09-17T15:29:22;4.57;;;1.20;;
27706;SDS011;36332;51.384;0.040;2022-09-17T15:31:54;4.75;;;1.20;;
27706;SDS011;36332;51.384;0.040;2022-09-17T15:34:21;2.70;;;0.98;;
27706;SDS011;36332;51.384;0.040;2022-09-17T15:37:02;1.95;;;0.70;;
27706;SDS011;36332;51.384;0.040;2022-09-17T15:39:48;3.88;;;1.40;;
27706;SDS011;36332;51.384;0.040;2022-09-17T15:42:18;2.67;;;0.88;;
27706;SDS011;36332;51.384;0.040;2022-09-17T15:47:58;4.40;;;1.30;;
27706;SDS011;36332;51.384;0.040;2022-09-17T15:50:28;4.03;;;1.83;;
27706;SDS011;36332;51.384;0.040;2022-09-17T15:55:56;2.05;;;1.23;;
27706;SDS011;36332;51.384;0.040;2022-09-17T15:58:35;4.22;;;1.23;;
27706;SDS011;36332;51.384;0.040;2022-09-17T16:04:16;3.30;;;0.98;;
27706;SDS011;36332;51.384;0.040;2022-09-17T16:06:52;4.05;;;1.70;;
27706;SDS011;36332;51.384;0.040;2022-09-17T16:09:42;2.88;;;1.38;;
27706;SDS011;36332;51.384;0.040;2022-09-17T16:12:16;3.15;;;1.40;;
27706;SDS011;36332;51.384;0.040;2022-09-17T16:14:47;2.40;;;1.00;;
27706;SDS011;36332;51.384;0.040;2022-09-17T16:17:25;3.78;;;1.52;;
27706;SDS011;36332;51.384;0.040;2022-09-17T16:22:43;11.68;;;2.33;;
27706;SDS011;36332;51.384;0.040;2022-09-17T16:25:14;13.73;;;1.73;;
27706;SDS011;36332;51.384;0.040;2022-09-17T16:28:05;6.47;;;1.00;;
27706;SDS011;36332;51.384;0.040;2022-09-17T16:30:32;2.03;;;1.15;;
27706;SDS011;36332;51.384;0.040;2022-09-17T16:33:00;1.75;;;0.93;;
27706;SDS011;36332;51.384;0.040;2022-09-17T16:35:29;2.53;;;0.90;;
27706;SDS011;36332;51.384;0.040;2022-09-17T16:37:57;2.42;;;1.05;;
27706;SDS011;36332;51.384;0.040;2022-09-17T16:40:25;1.75;;;0.90;;
27706;SDS011;36332;51.384;0.040;2022-09-17T16:43:00;2.22;;;1.20;;
27706;SDS011;36332;51.384;0.040;2022-09-17T16:45:29;2.50;;;1.10;;
27706;SDS011;36332;51.384;0.040;2022-09-17T16:47:57;5.38;;;1.15;;
27706;SDS011;36332;51.384;0.040;2022-09-17T16:50:26;2.20;;;0.82;;
27706;SDS011;36332;51.384;0.040;2022-09-17T16:52:54;4.97;;;1.30;;
27706;SDS011;36332;51.384;0.040;2022-09-17T16:55:22;4.45;;;1.30;;
27706;SDS011;36332;51.384;0.040;2022-09-17T16:57:49;2.95;;;1.08;;
27706;SDS011;36332;51.384;0.040;2022-09-17T17:00:18;3.40;;;1.02;;
27706;SDS011;36332;51.384;0.040;2022-09-17T17:02:50;6.90;;;1.15;;
27706;SDS011;36332;51.384;0.040;2022-09-17T17:05:23;5.20;;;1.02;;
27706;SDS011;36332;51.384;0.040;2022-09-17T17:07:52;6.40;;;1.42;;
27706;SDS011;36332;51.384;0.040;2022-09-17T17:10:22;3.97;;;1.50;;
27706;SDS011;36332;51.384;0.040;2022-09-17T17:12:50;2.28;;;1.30;;
27706;SDS011;36332;51.384;0.040;2022-09-17T17:15:18;10.65;;;1.45;;
27706;SDS011;36332;51.384;0.040;2022-09-17T17:17:47;2.40;;;1.00;;
27706;SDS011;36332;51.384;0.040;2022-09-17T17:20:14;4.63;;;1.20;;
27706;SDS011;36332;51.384;0.040;2022-09-17T17:22:42;3.35;;;1.60;;
27706;SDS011;36332;51.384;0.040;2022-09-17T17:25:11;8.70;;;1.55;;
27706;SDS011;36332;51.384;0.040;2022-09-17T17:27:40;6.15;;;1.17;;
27706;SDS011;36332;51.384;0.040;2022-09-17T17:30:08;2.95;;;1.35;;
27706;SDS011;36332;51.384;0.040;2022-09-17T17:32:42;2.72;;;1.02;;
27706;SDS011;36332;51.384;0.040;2022-09-17T17:35:14;3.97;;;1.25;;
27706;SDS011;36332;51.384;0.040;2022-09-17T17:37:42;3.67;;;1.40;;
27706;SDS011;36332;51.384;0.040;2022-09-17T17:40:14;3.40;;;1.30;;
27706;SDS011;36332;51.384;0.040;2022-09-17T17:42:43;6.90;;;1.15;;
27706;SDS011;36332;51.384;0.040;2022-09-17T17:45:13;3.30;;;1.30;;
27706;SDS011;36332;51.384;0.040;2022-09-17T17:47:41;4.55;;;1.58;;
27706;SDS011;36332;51.384;0.040;2022-09-17T17:50:08;3.03;;;1.38;;
27706;SDS011;36332;51.384;0.040;2022-09-17T17:52:36;4.07;;;1.45;;
27706;SDS011;36332;51.384;0.040;2022-09-17T17:55:05;3.78;;;1.20;;
27706;SDS011;36332;51.384;0.040;2022-09-17T17:57:33;2.22;;;1.10;;
27706;SDS011;36332;51.384;0.040;2022-09-17T18:00:01;4.95;;;1.45;;
27706;SDS011;36332;51.384;0.040;2022-09-17T18:02:38;5.40;;;1.20;;
27706;SDS011;36332;51.384;0.040;2022-09-17T18:05:06;3.70;;;1.58;;
27706;SDS011;36332;51.384;0.040;2022-09-17T18:07:34;3.78;;;1.30;;
27706;SDS011;36332;51.384;0.040;2022-09-17T18:10:02;3.67;;;1.40;;
27706;SDS011;36332;51.384;0.040;2022-09-17T18:12:29;1.27;;;1.10;;
27706;SDS011;36332;51.384;0.040;2022-09-17T18:14:57;3.85;;;1.30;;
27706;SDS011;36332;51.384;0.040;2022-09-17T18:17:25;3.28;;;1.13;;
27706;SDS011;36332;51.384;0.040;2022-09-17T18:19:54;4.20;;;2.03;;
27706;SDS011;36332;51.384;0.040;2022-09-17T18:22:22;8.10;;;1.88;;
27706;SDS011;36332;51.384;0.040;2022-09-17T18:24:50;8.13;;;2.03;;
27706;SDS011;36332;51.384;0.040;2022-09-17T18:27:18;5.30;;;2.00;;